Time,TemperatureF,DewpointF,PressureIn,WindDirection,WindDirectionDegrees,WindSpeedMPH,WindSpeedGustMPH,Humidity,HourlyPrecipIn,Conditions,Clouds,dailyrainin,SoftwareType,DateUTC
2013-04-11 00:00:00,31.9,28.2,30.03,NNE,27,0.0,0.0,86,0.00,,CLR,0.00,VWS V14.01,2013-04-11 04:00:00,
2013-04-11 00:01:00,32.1,28.1,30.03,NNE,14,0.0,0.0,85,0.00,,CLR,0.00,VWS V14.01,2013-04-11 04:01:00,
2013-04-11 00:02:00,32.4,27.5,30.04,NNE,13,0.0,0.0,82,0.00,,CLR,0.00,VWS V14.01,2013-04-11 04:02:00,
2013-04-11 00:03:00,32.4,27.5,30.04,NNE,13,0.0,0.0,82,0.00,,CLR,0.00,VWS V14.01,2013-04-11 04:03:00,
2013-04-11 00:04:00,32.4,27.5,30.04,NNE,13,0.0,0.0,82,0.00,,CLR,0.00,VWS V14.01,2013-04-11 04:04:00,
2013-04-11 00:05:00,32.4,27.5,30.04,NNE,13,0.0,0.0,82,0.00,,CLR,0.00,VWS V14.01,2013-04-11 04:05:00,
2013-04-11 00:06:00,32.2,27.6,30.03,North,0,0.0,0.0,83,0.00,,CLR,0.00,VWS V14.01,2013-04-11 04:06:00,
2013-04-11 00:07:00,32.1,27.2,30.04,NNE,13,0.0,0.0,82,0.00,,CLR,0.00,VWS V14.01,2013-04-11 04:07:00,
2013-04-11 00:08:00,32.1,27.2,30.04,NNE,13,0.0,0.0,82,0.00,,CLR,0.00,VWS V14.01,2013-04-11 04:08:00,
2013-04-11 00:09:00,32.1,27.2,30.04,NNE,13,0.0,0.0,82,0.00,,CLR,0.00,VWS V14.01,2013-04-11 04:09:00,
2013-04-11 00:10:00,32.1,27.2,30.04,NNE,13,0.0,0.0,82,0.00,,CLR,0.00,VWS V14.01,2013-04-11 04:10:00,
2013-04-11 00:11:00,32.1,27.2,30.04,NNE,13,0.0,0.0,82,0.00,,CLR,0.00,VWS V14.01,2013-04-11 04:11:00,
2013-04-11 00:12:00,32.2,27.6,30.03,NNE,13,0.0,0.0,83,0.00,,CLR,0.00,VWS V14.01,2013-04-11 04:12:00,
2013-04-11 00:13:00,32.1,27.2,30.04,NNE,13,0.0,0.0,82,0.00,,CLR,0.00,VWS V14.01,2013-04-11 04:13:00,
2013-04-11 00:14:00,32.1,27.2,30.04,NNE,13,0.0,0.0,82,0.00,,CLR,0.00,VWS V14.01,2013-04-11 04:14:00,
2013-04-11 00:15:00,31.9,27.0,30.03,NNE,13,0.0,0.0,82,0.00,,CLR,0.00,VWS V14.01,2013-04-11 04:15:00,
2013-04-11 00:16:00,31.9,27.0,30.03,NNE,13,0.0,0.0,82,0.00,,CLR,0.00,VWS V14.01,2013-04-11 04:16:00,
2013-04-11 00:17:00,32.7,28.1,30.01,NNE,17,10.0,0.0,83,0.00,,CLR,0.00,VWS V14.01,2013-04-11 04:17:00,
2013-04-11 00:18:00,31.9,27.0,30.03,NNE,13,0.0,0.0,82,0.00,,CLR,0.00,VWS V14.01,2013-04-11 04:18:00,
2013-04-11 00:19:00,31.9,27.0,30.03,NNE,13,0.0,0.0,82,0.00,,CLR,0.00,VWS V14.01,2013-04-11 04:19:00,
2013-04-11 00:20:00,31.6,26.8,30.03,NNE,13,0.0,0.0,82,0.00,,CLR,0.00,VWS V14.01,2013-04-11 04:20:00,
2013-04-11 00:21:00,31.6,26.8,30.03,NNE,13,0.0,0.0,82,0.00,,CLR,0.00,VWS V14.01,2013-04-11 04:21:00,
2013-04-11 00:22:00,32.8,26.4,30.01,NNW,330,1.0,0.0,77,0.00,,CLR,0.00,VWS V14.01,2013-04-11 04:22:00,
2013-04-11 00:31:00,32.8,26.1,30.01,NNE,22,0.0,0.0,76,0.00,,CLR,0.00,VWS V14.01,2013-04-11 04:31:00,
2013-04-11 00:37:00,32.7,26.0,30.01,NNE,13,0.0,0.0,76,0.00,,CLR,0.00,VWS V14.01,2013-04-11 04:37:00,
2013-04-11 00:42:00,32.5,25.8,30.01,North,6,0.0,0.0,76,0.00,,CLR,0.00,VWS V14.01,2013-04-11 04:42:00,
2013-04-11 00:47:00,32.4,25.7,30.01,North,7,0.0,0.0,76,0.00,,CLR,0.00,VWS V14.01,2013-04-11 04:47:00,
2013-04-11 00:52:00,32.4,24.7,30.01,NNE,25,0.0,0.0,73,0.00,,CLR,0.00,VWS V14.01,2013-04-11 04:52:00,
2013-04-11 00:57:00,32.7,24.7,30.01,NNE,30,0.0,0.0,72,0.00,,CLR,0.00,VWS V14.01,2013-04-11 04:57:00,
2013-04-11 01:02:00,32.8,24.8,30.01,NE,54,0.0,0.0,72,0.00,,CLR,0.00,VWS V14.01,2013-04-11 05:02:00,
2013-04-11 01:07:00,32.8,24.8,30.01,NE,55,0.0,0.0,72,0.00,,CLR,0.00,VWS V14.01,2013-04-11 05:07:00,
2013-04-11 01:12:00,32.8,24.8,30.01,NNE,28,0.0,0.0,72,0.00,,CLR,0.00,VWS V14.01,2013-04-11 05:12:00,
2013-04-11 01:17:00,32.8,24.8,30.01,NNE,24,0.0,0.0,72,0.00,,CLR,0.00,VWS V14.01,2013-04-11 05:17:00,
2013-04-11 01:22:00,32.8,24.8,30.01,North,11,0.0,0.0,72,0.00,,CLR,0.00,VWS V14.01,2013-04-11 05:22:00,
2013-04-11 01:27:00,32.8,24.8,30.01,NNE,13,0.0,0.0,72,0.00,,CLR,0.00,VWS V14.01,2013-04-11 05:27:00,
2013-04-11 01:32:00,32.7,23.3,30.01,NNE,16,0.0,0.0,68,0.00,,CLR,0.00,VWS V14.01,2013-04-11 05:32:00,
2013-04-11 01:37:00,32.7,23.3,30.01,NNE,21,0.0,0.0,68,0.00,,CLR,0.00,VWS V14.01,2013-04-11 05:37:00,
2013-04-11 01:42:00,32.8,23.4,30.01,NNE,14,0.0,0.0,68,0.00,,CLR,0.00,VWS V14.01,2013-04-11 05:42:00,
2013-04-11 01:47:00,32.8,23.4,30.01,NNE,16,0.0,0.0,68,0.00,,CLR,0.00,VWS V14.01,2013-04-11 05:47:00,
2013-04-11 01:52:00,33.1,23.4,30.01,NE,37,0.0,0.0,67,0.00,,CLR,0.00,VWS V14.01,2013-04-11 05:52:00,
2013-04-11 01:57:00,33.1,23.4,30.01,North,8,0.0,0.0,67,0.00,,CLR,0.00,VWS V14.01,2013-04-11 05:57:00,
2013-04-11 02:02:00,33.1,23.4,29.99,NE,42,0.0,0.0,67,0.00,,CLR,0.00,VWS V14.01,2013-04-11 06:02:00,
2013-04-11 02:08:00,33.2,23.1,29.99,NNE,20,0.0,0.0,66,0.00,,CLR,0.00,VWS V14.01,2013-04-11 06:08:00,
2013-04-11 02:13:00,33.2,23.1,29.99,NNE,24,0.0,0.0,66,0.00,,CLR,0.00,VWS V14.01,2013-04-11 06:13:00,
2013-04-11 02:18:00,33.2,23.1,29.98,ENE,61,5.0,0.0,66,0.00,,CLR,0.00,VWS V14.01,2013-04-11 06:18:00,
2013-04-11 02:23:00,33.5,23.4,29.98,North,0,0.0,0.0,66,0.00,,CLR,0.00,VWS V14.01,2013-04-11 06:23:00,
2013-04-11 02:28:00,33.5,23.0,29.98,NNE,31,0.0,0.0,65,0.00,,CLR,0.00,VWS V14.01,2013-04-11 06:28:00,
2013-04-11 02:33:00,33.7,23.2,29.96,North,0,3.0,0.0,65,0.00,,CLR,0.00,VWS V14.01,2013-04-11 06:33:00,
2013-04-11 02:38:00,33.8,23.3,29.96,NNE,32,0.0,0.0,65,0.00,,CLR,0.00,VWS V14.01,2013-04-11 06:38:00,
2013-04-11 02:43:00,34.0,23.5,29.96,NE,45,7.0,0.0,65,0.00,,CLR,0.00,VWS V14.01,2013-04-11 06:43:00,
2013-04-11 02:48:00,34.0,22.7,29.95,NNE,20,0.0,0.0,63,0.00,,CLR,0.00,VWS V14.01,2013-04-11 06:48:00,
2013-04-11 02:53:00,34.0,23.9,29.95,NNE,27,0.0,0.0,66,0.00,,CLR,0.00,VWS V14.01,2013-04-11 06:53:00,
2013-04-11 02:58:00,34.0,23.9,29.95,NNE,25,0.0,0.0,66,0.00,,CLR,0.00,VWS V14.01,2013-04-11 06:58:00,
2013-04-11 03:03:00,34.6,24.4,29.95,East,79,6.0,0.0,66,0.00,,CLR,0.00,VWS V14.01,2013-04-11 07:03:00,
2013-04-11 03:08:00,34.6,22.2,29.95,NNE,20,0.0,0.0,60,0.00,,CLR,0.00,VWS V14.01,2013-04-11 07:08:00,
2013-04-11 03:14:00,34.9,21.2,29.95,NE,41,0.0,0.0,57,0.00,,CLR,0.00,VWS V14.01,2013-04-11 07:14:00,
2013-04-11 03:19:00,35.0,21.3,29.94,NNE,27,0.0,0.0,57,0.00,,CLR,0.00,VWS V14.01,2013-04-11 07:19:00,
2013-04-11 03:24:00,35.2,21.5,29.94,NE,52,8.0,0.0,57,0.00,,CLR,0.00,VWS V14.01,2013-04-11 07:24:00,
2013-04-11 03:29:00,35.2,21.5,29.94,NNE,16,0.0,0.0,57,0.00,,CLR,0.00,VWS V14.01,2013-04-11 07:29:00,
2013-04-11 03:34:00,35.2,21.9,29.95,ENE,58,5.0,0.0,58,0.00,,CLR,0.00,VWS V14.01,2013-04-11 07:34:00,
2013-04-11 03:39:00,35.0,21.7,29.95,East,93,0.0,0.0,58,0.00,,CLR,0.00,VWS V14.01,2013-04-11 07:39:00,
2013-04-11 03:44:00,35.2,21.9,29.95,NE,38,7.0,0.0,58,0.00,,CLR,0.00,VWS V14.01,2013-04-11 07:44:00,
2013-04-11 03:49:00,35.2,21.9,29.96,NE,51,12.0,0.0,58,0.00,,CLR,0.00,VWS V14.01,2013-04-11 07:49:00,
2013-04-11 03:54:00,35.2,21.9,29.96,ENE,65,0.0,0.0,58,0.00,,CLR,0.00,VWS V14.01,2013-04-11 07:54:00,
2013-04-11 03:59:00,35.0,21.7,29.96,ENE,72,0.0,0.0,58,0.00,,CLR,0.00,VWS V14.01,2013-04-11 07:59:00,
2013-04-11 04:04:00,35.0,21.7,29.97,NNE,27,0.0,0.0,58,0.00,,CLR,0.00,VWS V14.01,2013-04-11 08:04:00,
2013-04-11 04:09:00,34.9,21.6,29.97,East,99,7.0,0.0,58,0.00,,CLR,0.00,VWS V14.01,2013-04-11 08:09:00,
2013-04-11 04:14:00,34.9,21.6,29.97,ENE,59,14.0,0.0,58,0.00,,CLR,0.00,VWS V14.01,2013-04-11 08:14:00,
2013-04-11 04:19:00,34.7,21.5,29.97,NE,37,0.0,0.0,58,0.00,,CLR,0.00,VWS V14.01,2013-04-11 08:19:00,
2013-04-11 04:24:00,34.6,21.8,29.97,East,85,7.0,0.0,59,0.00,,CLR,0.00,VWS V14.01,2013-04-11 08:24:00,
2013-04-11 04:29:00,34.6,21.8,29.97,NE,54,0.0,0.0,59,0.00,,CLR,0.00,VWS V14.01,2013-04-11 08:29:00,
2013-04-11 04:34:00,34.4,22.0,29.97,NE,51,0.0,0.0,60,0.00,,CLR,0.00,VWS V14.01,2013-04-11 08:34:00,
2013-04-11 04:39:00,34.3,21.9,29.97,NNE,16,0.0,0.0,60,0.00,,CLR,0.00,VWS V14.01,2013-04-11 08:39:00,
2013-04-11 04:44:00,34.3,21.9,29.99,ENE,59,12.0,0.0,60,0.00,,CLR,0.00,VWS V14.01,2013-04-11 08:44:00,
2013-04-11 04:49:00,34.1,21.7,29.99,NNE,23,0.0,0.0,60,0.00,,CLR,0.00,VWS V14.01,2013-04-11 08:49:00,
2013-04-11 04:54:00,34.1,21.7,29.99,North,0,2.0,0.0,60,0.00,,CLR,0.00,VWS V14.01,2013-04-11 08:54:00,
2013-04-11 05:00:00,34.1,21.3,30.00,NE,44,0.0,0.0,59,0.00,,CLR,0.00,VWS V14.01,2013-04-11 09:00:00,
2013-04-11 05:05:00,34.0,21.2,30.00,NE,48,0.0,0.0,59,0.00,,CLR,0.00,VWS V14.01,2013-04-11 09:05:00,
2013-04-11 05:10:00,34.0,21.2,30.00,NE,40,2.0,0.0,59,0.00,,CLR,0.00,VWS V14.01,2013-04-11 09:10:00,
2013-04-11 05:15:00,34.0,21.6,30.00,NNE,21,0.0,0.0,60,0.00,,CLR,0.00,VWS V14.01,2013-04-11 09:15:00,
2013-04-11 05:20:00,33.8,21.4,30.00,ENE,69,2.0,0.0,60,0.00,,CLR,0.00,VWS V14.01,2013-04-11 09:20:00,
2013-04-11 05:25:00,33.8,21.4,30.00,NE,47,1.0,0.0,60,0.00,,CLR,0.00,VWS V14.01,2013-04-11 09:25:00,
2013-04-11 05:30:00,33.7,21.3,29.99,ENE,78,11.0,0.0,60,0.00,,CLR,0.00,VWS V14.01,2013-04-11 09:30:00,
2013-04-11 05:35:00,33.5,21.1,29.99,NE,34,0.0,0.0,60,0.00,,CLR,0.00,VWS V14.01,2013-04-11 09:35:00,
2013-04-11 05:40:00,33.4,21.8,29.99,ENE,71,0.0,0.0,62,0.00,,CLR,0.00,VWS V14.01,2013-04-11 09:40:00,
2013-04-11 05:45:00,33.4,21.0,29.98,North,10,0.0,0.0,60,0.00,,CLR,0.00,VWS V14.01,2013-04-11 09:45:00,
2013-04-11 05:50:00,33.2,21.2,29.98,North,350,0.0,0.0,61,0.00,,CLR,0.00,VWS V14.01,2013-04-11 09:50:00,
2013-04-11 05:55:00,33.1,21.1,29.98,NE,49,0.0,0.0,61,0.00,,CLR,0.00,VWS V14.01,2013-04-11 09:55:00,
2013-04-11 06:00:00,32.9,20.9,29.97,NE,47,5.0,0.0,61,0.00,,CLR,0.00,VWS V14.01,2013-04-11 10:00:00,
2013-04-11 06:05:00,32.9,20.9,29.97,North,10,0.0,0.0,61,0.00,,CLR,0.00,VWS V14.01,2013-04-11 10:05:00,
2013-04-11 06:10:00,32.9,21.3,29.97,NE,54,2.0,0.0,62,0.00,,CLR,0.00,VWS V14.01,2013-04-11 10:10:00,
2013-04-11 06:15:00,32.8,21.2,29.95,NE,47,8.0,0.0,62,0.00,,CLR,0.00,VWS V14.01,2013-04-11 10:15:00,
2013-04-11 06:20:00,32.8,21.2,29.95,ENE,76,8.0,0.0,62,0.00,,CLR,0.00,VWS V14.01,2013-04-11 10:20:00,
2013-04-11 06:25:00,32.8,21.2,29.95,NE,45,2.0,0.0,62,0.00,,CLR,0.00,VWS V14.01,2013-04-11 10:25:00,
2013-04-11 06:31:00,32.5,20.9,29.94,NNE,18,5.0,0.0,62,0.00,,CLR,0.00,VWS V14.01,2013-04-11 10:31:00,
2013-04-11 06:36:00,32.4,20.9,29.94,NNE,18,7.0,0.0,62,0.00,,CLR,0.00,VWS V14.01,2013-04-11 10:36:00,
2013-04-11 06:41:00,32.2,20.7,29.94,NE,41,8.0,0.0,62,0.00,,CLR,0.00,VWS V14.01,2013-04-11 10:41:00,
2013-04-11 06:46:00,32.2,20.7,29.92,ENE,72,8.0,0.0,62,0.00,,CLR,0.00,VWS V14.01,2013-04-11 10:46:00,
2013-04-11 06:51:00,32.1,20.6,29.92,NE,49,7.0,0.0,62,0.00,,CLR,0.00,VWS V14.01,2013-04-11 10:51:00,
2013-04-11 06:56:00,32.1,20.6,29.92,NE,34,3.0,0.0,62,0.00,,CLR,0.00,VWS V14.01,2013-04-11 10:56:00,
2013-04-11 07:01:00,32.1,20.9,29.94,NNE,17,0.0,0.0,63,0.00,,CLR,0.00,VWS V14.01,2013-04-11 11:01:00,
2013-04-11 07:06:00,31.9,20.4,29.94,North,3,7.0,0.0,62,0.00,,CLR,0.00,VWS V14.01,2013-04-11 11:06:00,
2013-04-11 07:11:00,31.9,20.4,29.94,ENE,72,12.0,0.0,62,0.00,,CLR,0.00,VWS V14.01,2013-04-11 11:11:00,
2013-04-11 07:16:00,31.8,20.7,29.91,North,4,11.0,0.0,63,0.00,,CLR,0.00,VWS V14.01,2013-04-11 11:16:00,
2013-04-11 07:21:00,31.6,20.1,29.91,East,80,10.0,0.0,62,0.00,,CLR,0.00,VWS V14.01,2013-04-11 11:21:00,
2013-04-11 07:27:00,31.6,20.8,29.91,ENE,58,7.0,0.0,64,0.00,,CLR,0.00,VWS V14.01,2013-04-11 11:27:00,
2013-04-11 07:32:00,31.5,20.7,29.92,North,357,6.0,0.0,64,0.00,,CLR,0.00,VWS V14.01,2013-04-11 11:32:00,
2013-04-11 07:37:00,31.5,20.4,29.92,NE,47,1.0,0.0,63,0.00,,CLR,0.00,VWS V14.01,2013-04-11 11:37:00,
2013-04-11 07:42:00,31.5,20.0,29.92,North,10,0.0,0.0,62,0.00,,CLR,0.00,VWS V14.01,2013-04-11 11:42:00,
2013-04-11 07:47:00,31.5,20.4,29.97,East,90,13.0,0.0,63,0.00,,CLR,0.00,VWS V14.01,2013-04-11 11:47:00,
2013-04-11 07:52:00,31.5,20.4,29.97,NE,52,0.0,0.0,63,0.00,,CLR,0.00,VWS V14.01,2013-04-11 11:52:00,
2013-04-11 07:57:00,31.5,20.4,29.97,ESE,112,7.0,0.0,63,0.00,,CLR,0.00,VWS V14.01,2013-04-11 11:57:00,
2013-04-11 08:02:00,31.6,20.5,30.02,NNE,16,0.0,0.0,63,0.00,,CLR,0.00,VWS V14.01,2013-04-11 12:02:00,
2013-04-11 08:07:00,31.6,20.5,30.02,NNE,32,0.0,0.0,63,0.00,,CLR,0.00,VWS V14.01,2013-04-11 12:07:00,
2013-04-11 08:12:00,31.6,20.5,30.02,NE,42,14.0,0.0,63,0.00,,CLR,0.00,VWS V14.01,2013-04-11 12:12:00,
2013-04-11 08:17:00,31.8,20.7,30.01,ENE,75,4.0,0.0,63,0.00,,CLR,0.00,VWS V14.01,2013-04-11 12:17:00,
2013-04-11 08:22:00,31.8,20.7,30.01,East,100,0.0,0.0,63,0.00,,SCT110,0.00,VWS V14.01,2013-04-11 12:22:00,
2013-04-11 08:27:00,31.6,20.8,30.01,WNW,301,0.0,0.0,64,0.00,,SCT110,0.00,VWS V14.01,2013-04-11 12:27:00,
2013-04-11 08:32:00,31.6,20.8,30.00,NE,49,0.0,0.0,64,0.00,,SCT110,0.00,VWS V14.01,2013-04-11 12:32:00,
2013-04-11 08:37:00,31.6,20.8,30.00,North,359,5.0,0.0,64,0.00,,SCT110,0.00,VWS V14.01,2013-04-11 12:37:00,
2013-04-11 08:42:00,31.6,20.8,30.00,NE,51,0.0,0.0,64,0.00,,BKN100,0.00,VWS V14.01,2013-04-11 12:42:00,
2013-04-11 08:47:00,31.6,20.1,30.01,East,90,0.0,0.0,62,0.00,,BKN100,0.00,VWS V14.01,2013-04-11 12:47:00,
2013-04-11 08:52:00,31.6,20.1,30.01,NNE,13,0.0,0.0,62,0.00,,BKN100,0.00,VWS V14.01,2013-04-11 12:52:00,
2013-04-11 08:57:00,31.6,20.1,30.01,NNE,21,0.0,0.0,62,0.00,,BKN100,0.00,VWS V14.01,2013-04-11 12:57:00,
2013-04-11 09:03:00,31.6,20.5,29.98,NNE,23,0.0,0.0,63,0.00,,BKN110,0.00,VWS V14.01,2013-04-11 13:03:00,
2013-04-11 09:08:00,31.6,20.5,29.98,East,80,0.0,0.0,63,0.00,,BKN110,0.00,VWS V14.01,2013-04-11 13:08:00,
2013-04-11 09:13:00,31.5,20.7,29.98,East,80,3.0,0.0,64,0.00,,BKN110,0.00,VWS V14.01,2013-04-11 13:13:00,
2013-04-11 09:18:00,31.5,20.0,29.98,NNE,28,3.0,0.0,62,0.00,,BKN110,0.00,VWS V14.01,2013-04-11 13:18:00,
2013-04-11 09:23:00,31.5,20.4,29.98,NE,44,8.0,0.0,63,0.00,,OVC120,0.00,VWS V14.01,2013-04-11 13:23:00,
2013-04-11 09:28:00,31.5,20.4,29.98,North,8,1.0,0.0,63,0.00,,OVC120,0.00,VWS V14.01,2013-04-11 13:28:00,
2013-04-11 09:33:00,31.5,20.4,29.99,ENE,65,0.0,0.0,63,0.00,,OVC120,0.00,VWS V14.01,2013-04-11 13:33:00,
2013-04-11 09:38:00,31.3,19.4,29.99,East,88,2.0,0.0,61,0.00,,OVC120,0.00,VWS V14.01,2013-04-11 13:38:00,
2013-04-11 09:43:00,31.3,19.0,29.99,NE,45,0.0,0.0,60,0.00,,OVC120,0.00,VWS V14.01,2013-04-11 13:43:00,
2013-04-11 09:48:00,31.2,19.0,29.94,NE,56,6.0,0.0,60,0.00,,OVC120,0.00,VWS V14.01,2013-04-11 13:48:00,
2013-04-11 09:53:00,31.2,19.0,29.94,East,80,7.0,0.0,60,0.00,,OVC120,0.00,VWS V14.01,2013-04-11 13:53:00,
2013-04-11 09:58:00,31.2,19.0,29.94,ENE,61,11.0,0.0,60,0.00,,OVC120,0.00,VWS V14.01,2013-04-11 13:58:00,
2013-04-11 10:03:00,31.0,18.8,29.94,NNE,14,6.0,0.0,60,0.00,,OVC120,0.00,VWS V14.01,2013-04-11 14:03:00,
2013-04-11 10:08:00,31.0,18.8,29.94,NE,54,7.0,0.0,60,0.00,,OVC120,0.00,VWS V14.01,2013-04-11 14:08:00,
2013-04-11 10:14:00,31.0,18.4,29.94,NE,47,5.0,0.0,59,0.00,,OVC120,0.00,VWS V14.01,2013-04-11 14:14:00,
2013-04-11 10:19:00,31.0,18.4,29.94,NE,41,8.0,0.0,59,0.00,,OVC120,0.00,VWS V14.01,2013-04-11 14:19:00,
2013-04-11 10:24:00,31.2,18.5,29.94,ENE,59,13.0,0.0,59,0.00,,OVC120,0.00,VWS V14.01,2013-04-11 14:24:00,
2013-04-11 10:29:00,31.3,18.6,29.94,East,92,12.0,0.0,59,0.00,,OVC120,0.00,VWS V14.01,2013-04-11 14:29:00,
2013-04-11 10:34:00,31.5,18.8,29.95,NE,40,2.0,0.0,59,0.00,,OVC120,0.00,VWS V14.01,2013-04-11 14:34:00,
2013-04-11 10:39:00,31.6,18.9,29.95,ENE,58,0.0,0.0,59,0.00,,OVC120,0.00,VWS V14.01,2013-04-11 14:39:00,
2013-04-11 10:44:00,31.8,19.1,29.95,ENE,61,3.0,0.0,59,0.00,,OVC110,0.00,VWS V14.01,2013-04-11 14:44:00,
2013-04-11 10:49:00,31.9,18.8,29.95,ESE,110,2.0,0.0,58,0.00,,OVC110,0.00,VWS V14.01,2013-04-11 14:49:00,
2013-04-11 10:54:00,32.1,19.0,29.95,NE,34,0.0,0.0,58,0.00,,OVC110,0.00,VWS V14.01,2013-04-11 14:54:00,
2013-04-11 10:59:00,32.2,19.1,29.95,NE,44,17.0,0.0,58,0.00,,OVC110,0.00,VWS V14.01,2013-04-11 14:59:00,
2013-04-11 11:04:00,32.2,19.1,29.95,East,80,0.0,0.0,58,0.00,,OVC120,0.00,VWS V14.01,2013-04-11 15:04:00,
2013-04-11 11:09:00,32.2,19.1,29.95,ESE,104,7.0,0.0,58,0.00,,OVC120,0.00,VWS V14.01,2013-04-11 15:09:00,
2013-04-11 11:14:00,32.2,19.1,29.96,East,85,10.0,0.0,58,0.00,,OVC120,0.00,VWS V14.01,2013-04-11 15:14:00,
2013-04-11 11:19:00,32.1,19.0,29.96,East,92,6.0,0.0,58,0.00,,OVC120,0.00,VWS V14.01,2013-04-11 15:19:00,
2013-04-11 11:24:00,32.1,19.0,29.96,NE,44,6.0,0.0,58,0.00,,OVC120,0.00,VWS V14.01,2013-04-11 15:24:00,
2013-04-11 11:29:00,32.4,19.3,29.94,NNE,27,5.0,0.0,58,0.00,,OVC120,0.00,VWS V14.01,2013-04-11 15:29:00,
2013-04-11 11:35:00,32.5,19.4,29.94,NE,35,5.0,0.0,58,0.00,,OVC120,0.00,VWS V14.01,2013-04-11 15:35:00,
2013-04-11 11:40:00,32.7,19.6,29.94,NE,48,6.0,0.0,58,0.00,,OVC095,0.00,VWS V14.01,2013-04-11 15:40:00,
2013-04-11 11:45:00,32.5,19.4,29.93,North,350,14.0,0.0,58,0.00,,OVC095,0.00,VWS V14.01,2013-04-11 15:45:00,
2013-04-11 11:50:00,32.7,19.6,29.93,NE,34,3.0,0.0,58,0.00,,OVC095,0.00,VWS V14.01,2013-04-11 15:50:00,
2013-04-11 11:55:00,32.8,19.7,29.93,ESE,102,10.0,0.0,58,0.00,,OVC095,0.00,VWS V14.01,2013-04-11 15:55:00,
2013-04-11 12:00:00,33.1,19.9,29.90,ENE,65,0.0,0.0,58,0.00,,OVC095,0.00,VWS V14.01,2013-04-11 16:00:00,
2013-04-11 12:05:00,33.4,20.2,29.90,NE,52,10.0,0.0,58,0.00,,OVC095,0.00,VWS V14.01,2013-04-11 16:05:00,
2013-04-11 12:10:00,33.4,19.8,29.90,NE,49,3.0,0.0,57,0.00,,OVC095,0.00,VWS V14.01,2013-04-11 16:10:00,
2013-04-11 12:15:00,33.4,19.4,29.92,East,97,0.0,0.0,56,0.00,,OVC095,0.00,VWS V14.01,2013-04-11 16:15:00,
2013-04-11 12:20:00,33.4,19.4,29.92,ESE,104,10.0,0.0,56,0.00,,BKN120,0.00,VWS V14.01,2013-04-11 16:20:00,
2013-04-11 12:25:00,33.4,18.6,29.92,ENE,69,6.0,0.0,54,0.00,,BKN120,0.00,VWS V14.01,2013-04-11 16:25:00,
2013-04-11 12:30:00,33.4,18.6,29.92,ENE,76,6.0,0.0,54,0.00,,BKN120,0.00,VWS V14.01,2013-04-11 16:30:00,
2013-04-11 12:35:00,33.2,18.4,29.92,East,100,6.0,0.0,54,0.00,,BKN120,0.00,VWS V14.01,2013-04-11 16:35:00,
2013-04-11 12:40:00,33.4,18.6,29.92,North,356,0.0,0.0,54,0.00,,OVC120,0.00,VWS V14.01,2013-04-11 16:40:00,
2013-04-11 12:45:00,33.5,19.1,29.92,North,4,6.0,0.0,55,0.00,,OVC120,0.00,VWS V14.01,2013-04-11 16:45:00,
2013-04-11 12:51:00,33.7,19.3,29.92,ENE,69,10.0,0.0,55,0.00,,OVC120,0.00,VWS V14.01,2013-04-11 16:51:00,
2013-04-11 12:56:00,33.5,19.1,29.92,East,82,0.0,0.0,55,0.00,,OVC120,0.00,VWS V14.01,2013-04-11 16:56:00,
2013-04-11 13:01:00,33.8,19.4,29.90,NNE,32,17.0,0.0,55,0.00,,OVC095,0.00,VWS V14.01,2013-04-11 17:01:00,
2013-04-11 13:06:00,33.8,19.4,29.90,NW,313,10.0,0.0,55,0.00,,OVC095,0.00,VWS V14.01,2013-04-11 17:06:00,
2013-04-11 13:11:00,33.8,19.4,29.90,NE,51,0.0,0.0,55,0.00,,OVC095,0.00,VWS V14.01,2013-04-11 17:11:00,
2013-04-11 13:16:00,34.1,19.6,29.89,East,97,14.0,0.0,55,0.00,,OVC095,0.00,VWS V14.01,2013-04-11 17:16:00,
2013-04-11 13:21:00,33.7,19.3,29.89,ENE,62,12.0,0.0,55,0.00,,OVC095,0.00,VWS V14.01,2013-04-11 17:21:00,
2013-04-11 13:26:00,33.7,19.3,29.89,NNE,24,7.0,0.0,55,0.00,,OVC095,0.00,VWS V14.01,2013-04-11 17:26:00,
2013-04-11 13:31:00,33.2,18.8,29.90,ESE,104,3.0,0.0,55,0.00,,OVC095,0.00,VWS V14.01,2013-04-11 17:31:00,
2013-04-11 13:36:00,33.2,17.9,29.90,NNW,342,0.0,0.0,53,0.00,,OVC095,0.00,VWS V14.01,2013-04-11 17:36:00,
2013-04-11 13:41:00,33.5,18.2,29.90,NW,322,0.0,0.0,53,0.00,,OVC085,0.00,VWS V14.01,2013-04-11 17:41:00,
2013-04-11 13:47:00,33.5,18.6,29.89,NNE,30,3.0,0.0,54,0.00,,OVC085,0.00,VWS V14.01,2013-04-11 17:47:00,
2013-04-11 13:52:00,33.5,18.6,29.89,East,82,7.0,0.0,54,0.00,,OVC085,0.00,VWS V14.01,2013-04-11 17:52:00,
2013-04-11 13:57:00,33.5,18.6,29.89,NE,47,5.0,0.0,54,0.00,,OVC085,0.00,VWS V14.01,2013-04-11 17:57:00,
2013-04-11 14:02:00,33.8,18.9,29.89,ENE,66,7.0,0.0,54,0.00,,OVC085,0.00,VWS V14.01,2013-04-11 18:02:00,
2013-04-11 14:07:00,33.8,17.1,29.89,NE,52,7.0,0.0,50,0.00,,OVC085,0.00,VWS V14.01,2013-04-11 18:07:00,
2013-04-11 14:12:00,33.7,17.0,29.89,East,93,14.0,0.0,50,0.00,,OVC085,0.00,VWS V14.01,2013-04-11 18:12:00,
2013-04-11 14:17:00,33.7,17.0,29.87,ENE,65,26.0,0.0,50,0.00,,OVC085,0.00,VWS V14.01,2013-04-11 18:17:00,
2013-04-11 14:22:00,33.8,17.1,29.87,NE,37,3.0,0.0,50,0.00,,OVC085,0.00,VWS V14.01,2013-04-11 18:22:00,
2013-04-11 14:27:00,33.8,17.1,29.87,NE,44,15.0,0.0,50,0.00,,OVC085,0.00,VWS V14.01,2013-04-11 18:27:00,
2013-04-11 14:32:00,33.8,17.1,29.87,East,99,8.0,0.0,50,0.00,,OVC085,0.00,VWS V14.01,2013-04-11 18:32:00,
2013-04-11 14:37:00,33.8,16.2,29.87,NE,54,5.0,0.0,48,0.00,,OVC085,0.00,VWS V14.01,2013-04-11 18:37:00,
2013-04-11 14:42:00,34.0,16.4,29.87,ENE,66,6.0,0.0,48,0.00,,OVC090,0.00,VWS V14.01,2013-04-11 18:42:00,
2013-04-11 14:47:00,34.0,16.4,29.88,ESE,116,0.0,0.0,48,0.00,,OVC090,0.00,VWS V14.01,2013-04-11 18:47:00,
2013-04-11 14:53:00,34.0,16.4,29.88,NE,49,3.0,0.0,48,0.00,,OVC090,0.00,VWS V14.01,2013-04-11 18:53:00,
2013-04-11 14:58:00,33.5,15.9,29.88,NE,52,12.0,0.0,48,0.00,,OVC090,0.00,VWS V14.01,2013-04-11 18:58:00,
2013-04-11 15:03:00,33.5,15.9,29.86,ENE,59,0.0,0.0,48,0.00,,OVC085,0.00,VWS V14.01,2013-04-11 19:03:00,
2013-04-11 15:08:00,33.5,17.8,29.86,ENE,62,19.0,0.0,52,0.00,,OVC085,0.00,VWS V14.01,2013-04-11 19:08:00,
2013-04-11 15:13:00,33.4,17.7,29.86,NE,51,7.0,0.0,52,0.00,,OVC085,0.00,VWS V14.01,2013-04-11 19:13:00,
2013-04-11 15:18:00,33.2,17.5,29.86,ENE,64,5.0,0.0,52,0.00,,OVC085,0.00,VWS V14.01,2013-04-11 19:18:00,
2013-04-11 15:23:00,33.2,17.5,29.86,East,90,6.0,0.0,52,0.00,,OVC070,0.00,VWS V14.01,2013-04-11 19:23:00,
2013-04-11 15:28:00,33.2,17.5,29.86,ENE,69,1.0,0.0,52,0.00,,OVC070,0.00,VWS V14.01,2013-04-11 19:28:00,
2013-04-11 15:33:00,33.1,17.4,29.86,NNE,27,8.0,0.0,52,0.00,,OVC070,0.00,VWS V14.01,2013-04-11 19:33:00,
2013-04-11 15:38:00,32.8,17.1,29.86,NE,40,11.0,0.0,52,0.00,,OVC070,0.00,VWS V14.01,2013-04-11 19:38:00,
2013-04-11 15:43:00,32.5,18.6,29.86,NW,313,5.0,0.0,56,0.00,,OVC055,0.00,VWS V14.01,2013-04-11 19:43:00,
2013-04-11 15:48:00,32.4,18.0,29.86,North,359,5.0,0.0,55,0.00,,OVC055,0.00,VWS V14.01,2013-04-11 19:48:00,
2013-04-11 15:53:00,32.4,18.0,29.86,North,6,0.0,0.0,55,0.00,,OVC055,0.00,VWS V14.01,2013-04-11 19:53:00,
2013-04-11 15:59:00,32.4,18.9,29.86,NNW,333,0.0,0.0,57,0.00,,OVC055,0.00,VWS V14.01,2013-04-11 19:59:00,
2013-04-11 16:04:00,32.4,18.9,29.87,ENE,59,11.0,0.0,57,0.00,,,0.00,VWS V14.01,2013-04-11 20:04:00,
2013-04-11 16:09:00,31.8,18.3,29.87,North,359,0.0,0.0,57,0.00,,,0.00,VWS V14.01,2013-04-11 20:09:00,
2013-04-11 16:14:00,31.6,19.3,29.87,East,82,2.0,0.0,60,0.00,,,0.00,VWS V14.01,2013-04-11 20:14:00,
2013-04-11 16:19:00,31.5,19.2,29.86,ENE,62,6.0,0.0,60,0.00,,,0.00,VWS V14.01,2013-04-11 20:19:00,
2013-04-11 16:24:00,31.5,19.2,29.86,ENE,58,3.0,0.0,60,0.00,,,0.00,VWS V14.01,2013-04-11 20:24:00,
2013-04-11 16:29:00,31.5,19.2,29.86,ENE,59,0.0,0.0,60,0.00,,,0.00,VWS V14.01,2013-04-11 20:29:00,
2013-04-11 16:34:00,31.6,19.3,29.86,ESE,110,0.0,0.0,60,0.00,,,0.00,VWS V14.01,2013-04-11 20:34:00,
2013-04-11 16:39:00,31.6,19.3,29.86,North,0,0.0,0.0,60,0.00,,,0.00,VWS V14.01,2013-04-11 20:39:00,
2013-04-11 16:44:00,31.6,19.3,29.86,NE,55,14.0,0.0,60,0.00,,OVC055,0.00,VWS V14.01,2013-04-11 20:44:00,
2013-04-11 16:49:00,31.6,19.3,29.85,ENE,64,0.0,0.0,60,0.00,,OVC055,0.00,VWS V14.01,2013-04-11 20:49:00,
2013-04-11 16:54:00,31.6,19.3,29.85,NNE,16,4.0,0.0,60,0.00,,OVC055,0.00,VWS V14.01,2013-04-11 20:54:00,
2013-04-11 16:59:00,31.5,19.2,29.85,SE,137,8.0,0.0,60,0.00,,OVC055,0.00,VWS V14.01,2013-04-11 20:59:00,
2013-04-11 17:04:00,31.5,19.2,29.85,ENE,65,0.0,0.0,60,0.00,,OVC055,0.00,VWS V14.01,2013-04-11 21:04:00,
2013-04-11 17:09:00,31.5,19.2,29.85,East,80,2.0,0.0,60,0.00,,OVC055,0.00,VWS V14.01,2013-04-11 21:09:00,
2013-04-11 17:14:00,31.2,19.0,29.88,East,97,0.0,0.0,60,0.00,,OVC055,0.00,VWS V14.01,2013-04-11 21:14:00,
2013-04-11 17:19:00,31.2,19.0,29.88,East,82,12.0,0.0,60,0.00,,OVC055,0.00,VWS V14.01,2013-04-11 21:19:00,
2013-04-11 17:24:00,31.2,19.0,29.88,East,85,3.0,0.0,60,0.00,,OVC050,0.00,VWS V14.01,2013-04-11 21:24:00,
2013-04-11 17:29:00,31.2,19.0,29.86,ENE,66,7.0,0.0,60,0.00,,OVC050,0.00,VWS V14.01,2013-04-11 21:29:00,
2013-04-11 17:35:00,31.0,18.8,29.86,NE,34,0.0,0.0,60,0.00,,OVC050,0.00,VWS V14.01,2013-04-11 21:35:00,
2013-04-11 17:40:00,31.0,18.8,29.86,ESE,112,1.0,0.0,60,0.00,,OVC050,0.00,VWS V14.01,2013-04-11 21:40:00,
2013-04-11 17:45:00,31.0,18.8,29.85,ESE,103,0.0,0.0,60,0.00,,OVC050,0.00,VWS V14.01,2013-04-11 21:45:00,
2013-04-11 17:50:00,31.0,18.8,29.85,ENE,75,0.0,0.0,60,0.00,,OVC050,0.00,VWS V14.01,2013-04-11 21:50:00,
2013-04-11 17:55:00,31.0,23.7,29.85,ESE,110,0.0,0.0,74,0.00,,OVC050,0.00,VWS V14.01,2013-04-11 21:55:00,
2013-04-11 18:00:00,30.3,23.0,29.84,NNE,14,11.0,0.0,74,0.00,,,0.00,VWS V14.01,2013-04-11 22:00:00,
2013-04-11 18:05:00,30.0,22.7,29.84,North,10,1.0,0.0,74,0.00,,,0.00,VWS V14.01,2013-04-11 22:05:00,
2013-04-11 18:10:00,29.8,22.5,29.84,NNE,18,2.0,0.0,74,0.00,,,0.00,VWS V14.01,2013-04-11 22:10:00,
2013-04-11 18:15:00,29.7,22.4,29.82,North,359,0.0,0.0,74,0.00,,,0.00,VWS V14.01,2013-04-11 22:15:00,
2013-04-11 18:20:00,29.7,22.4,29.82,NNE,23,7.0,0.0,74,0.00,,,0.00,VWS V14.01,2013-04-11 22:20:00,
2013-04-11 18:25:00,29.5,23.2,29.82,ESE,103,6.0,0.0,77,0.00,,,0.00,VWS V14.01,2013-04-11 22:25:00,
2013-04-11 18:30:00,29.5,23.2,29.83,NNE,13,3.0,0.0,77,0.00,,,0.00,VWS V14.01,2013-04-11 22:30:00,
2013-04-11 18:35:00,29.5,23.8,29.83,ENE,58,0.0,0.0,79,0.00,,,0.00,VWS V14.01,2013-04-11 22:35:00,
2013-04-11 18:40:00,29.4,23.7,29.83,East,90,6.0,0.0,79,0.00,,OVC060,0.00,VWS V14.01,2013-04-11 22:40:00,
2013-04-11 18:46:00,29.4,23.7,29.83,NNE,18,6.0,0.0,79,0.06,,OVC060,0.06,VWS V14.01,2013-04-11 22:46:00,
2013-04-11 18:51:00,29.4,23.7,29.83,NE,42,7.0,0.0,79,0.06,,OVC060,0.06,VWS V14.01,2013-04-11 22:51:00,
2013-04-11 18:56:00,29.4,23.7,29.83,NE,47,10.0,0.0,79,0.07,,OVC060,0.07,VWS V14.01,2013-04-11 22:56:00,
2013-04-11 19:01:00,29.4,23.4,29.83,NNE,23,19.0,0.0,78,0.07,,OVC060,0.07,VWS V14.01,2013-04-11 23:01:00,
2013-04-11 19:06:00,29.4,23.1,29.83,North,0,3.0,0.0,77,0.07,,OVC060,0.07,VWS V14.01,2013-04-11 23:06:00,
2013-04-11 19:11:00,29.4,23.1,29.83,NE,37,6.0,0.0,77,0.07,,OVC060,0.07,VWS V14.01,2013-04-11 23:11:00,
2013-04-11 19:16:00,29.5,23.2,29.84,NNE,16,8.0,0.0,77,0.08,,OVC060,0.08,VWS V14.01,2013-04-11 23:16:00,
2013-04-11 19:21:00,29.7,23.4,29.84,NNE,25,6.0,0.0,77,0.08,,OVC060,0.08,VWS V14.01,2013-04-11 23:21:00,
2013-04-11 19:26:00,29.5,23.2,29.84,NE,49,6.0,0.0,77,0.08,,OVC060,0.08,VWS V14.01,2013-04-11 23:26:00,
2013-04-11 19:32:00,29.5,23.2,29.81,NNW,328,0.0,0.0,77,0.09,,OVC060,0.09,VWS V14.01,2013-04-11 23:32:00,
2013-04-11 19:37:00,29.5,23.2,29.81,NNE,28,7.0,0.0,77,0.10,,OVC060,0.10,VWS V14.01,2013-04-11 23:37:00,
2013-04-11 19:42:00,29.4,23.1,29.81,NE,52,7.0,0.0,77,0.10,,,0.10,VWS V14.01,2013-04-11 23:42:00,
2013-04-11 19:47:00,29.3,23.0,29.79,NE,44,21.0,0.0,77,0.04,,,0.10,VWS V14.01,2013-04-11 23:47:00,
2013-04-11 19:52:00,29.1,24.3,29.79,NE,35,10.0,0.0,82,0.04,,,0.10,VWS V14.01,2013-04-11 23:52:00,
2013-04-11 20:00:00,29.0,24.5,29.79,NE,45,5.0,11.0,83,0.04,,,0.11,VWS V14.01,2013-04-12 00:00:00,
2013-04-11 20:05:00,29.0,24.5,29.79,ENE,68,5.0,11.0,83,0.04,,,0.11,VWS V14.01,2013-04-12 00:05:00,
2013-04-11 20:10:00,29.0,24.5,29.79,NNE,23,10.0,11.0,83,0.04,,,0.11,VWS V14.01,2013-04-12 00:10:00,
2013-04-11 20:16:00,29.0,24.5,29.79,ENE,73,7.0,11.0,83,0.03,,,0.11,VWS V14.01,2013-04-12 00:16:00,
2013-04-11 20:21:00,29.0,24.5,29.79,NE,47,2.0,11.0,83,0.04,,,0.12,VWS V14.01,2013-04-12 00:21:00,
2013-04-11 20:26:00,29.0,24.8,29.79,NE,40,4.0,11.0,84,0.04,,,0.12,VWS V14.01,2013-04-12 00:26:00,
2013-04-11 20:31:00,29.1,24.9,29.78,ENE,73,12.0,12.0,84,0.05,,,0.13,VWS V14.01,2013-04-12 00:31:00,
2013-04-11 20:36:00,29.1,24.9,29.78,NNE,24,1.0,11.0,84,0.04,,,0.13,VWS V14.01,2013-04-12 00:36:00,
2013-04-11 20:41:00,29.1,24.9,29.78,NE,44,6.0,11.0,84,0.04,,,0.14,VWS V14.01,2013-04-12 00:41:00,
2013-04-11 20:46:00,29.1,24.9,29.78,NNE,31,6.0,11.0,84,0.04,,,0.14,VWS V14.01,2013-04-12 00:46:00,
2013-04-11 20:51:00,29.1,25.2,29.78,NW,313,5.0,11.0,85,0.05,,,0.15,VWS V14.01,2013-04-12 00:51:00,
2013-04-11 20:57:00,29.1,25.2,29.78,East,93,7.0,11.0,85,0.05,,,0.15,VWS V14.01,2013-04-12 00:57:00,
2013-04-11 21:02:00,29.0,25.1,29.74,ENE,62,15.0,15.0,85,0.04,,,0.15,VWS V14.01,2013-04-12 01:02:00,
2013-04-11 21:07:00,29.1,25.2,29.74,East,82,6.0,11.0,85,0.06,,,0.17,VWS V14.01,2013-04-12 01:07:00,
2013-04-11 21:12:00,29.1,25.2,29.74,ENE,73,10.0,11.0,85,0.06,,,0.17,VWS V14.01,2013-04-12 01:12:00,
2013-04-11 21:17:00,29.1,25.2,29.76,ENE,78,5.0,11.0,85,0.07,,,0.18,VWS V14.01,2013-04-12 01:17:00,
2013-04-11 21:22:00,29.3,25.1,29.76,East,90,10.0,11.0,84,0.07,,,0.19,VWS V14.01,2013-04-12 01:22:00,
2013-04-11 21:27:00,29.4,25.2,29.76,ENE,69,12.0,12.0,84,0.07,,,0.19,VWS V14.01,2013-04-12 01:27:00,
2013-04-11 21:32:00,29.4,25.2,29.77,ENE,62,2.0,11.0,84,0.06,,,0.19,VWS V14.01,2013-04-12 01:32:00,
2013-04-11 21:37:00,29.4,25.2,29.77,East,80,7.0,11.0,84,0.06,,,0.19,VWS V14.01,2013-04-12 01:37:00,
2013-04-11 21:42:00,29.5,25.3,29.77,East,79,5.0,11.0,84,0.06,,,0.20,VWS V14.01,2013-04-12 01:42:00,
2013-04-11 21:47:00,29.5,25.3,29.76,NE,38,7.0,11.0,84,0.06,,,0.20,VWS V14.01,2013-04-12 01:47:00,
2013-04-11 21:52:00,29.5,25.0,29.76,North,359,3.0,11.0,83,0.05,,,0.20,VWS V14.01,2013-04-12 01:52:00,
2013-04-11 21:57:00,29.5,25.0,29.76,NE,35,6.0,11.0,83,0.06,,,0.21,VWS V14.01,2013-04-12 01:57:00,
2013-04-11 22:02:00,29.5,25.0,29.76,ENE,72,13.0,13.0,83,0.06,,,0.21,VWS V14.01,2013-04-12 02:02:00,
2013-04-11 22:07:00,29.5,25.0,29.76,NE,44,12.0,12.0,83,0.05,,,0.22,VWS V14.01,2013-04-12 02:07:00,
2013-04-11 22:12:00,29.5,25.0,29.76,NE,38,8.0,11.0,83,0.05,,,0.22,VWS V14.01,2013-04-12 02:12:00,
2013-04-11 22:17:00,29.4,24.9,29.77,NNE,18,0.0,11.0,83,0.05,,,0.23,VWS V14.01,2013-04-12 02:17:00,
2013-04-11 22:22:00,29.4,25.2,29.77,East,86,7.0,11.0,84,0.05,,,0.24,VWS V14.01,2013-04-12 02:22:00,
2013-04-11 22:27:00,29.4,25.2,29.77,East,95,0.0,11.0,84,0.05,,,0.24,VWS V14.01,2013-04-12 02:27:00,
2013-04-11 22:32:00,29.4,25.2,29.77,NNE,24,5.0,11.0,84,0.06,,,0.25,VWS V14.01,2013-04-12 02:32:00,
2013-04-11 22:37:00,29.4,25.5,29.77,East,93,0.0,11.0,85,0.07,,,0.26,VWS V14.01,2013-04-12 02:37:00,
2013-04-11 22:42:00,29.4,25.5,29.77,East,82,7.0,11.0,85,0.06,,,0.26,VWS V14.01,2013-04-12 02:42:00,
2013-04-11 22:47:00,29.4,25.5,29.78,North,0,11.0,11.0,85,0.06,,,0.26,VWS V14.01,2013-04-12 02:47:00,
2013-04-11 22:52:00,29.4,25.5,29.78,ENE,73,5.0,11.0,85,0.08,,,0.28,VWS V14.01,2013-04-12 02:52:00,
2013-04-11 22:58:00,29.4,25.5,29.78,NE,44,5.0,11.0,85,0.07,,,0.28,VWS V14.01,2013-04-12 02:58:00,
2013-04-11 23:03:00,29.4,25.5,29.77,ENE,58,2.0,11.0,85,0.08,,,0.01,VWS V14.01,2013-04-12 03:03:00,
2013-04-11 23:08:00,29.4,25.5,29.77,ENE,59,6.0,11.0,85,0.08,,,0.02,VWS V14.01,2013-04-12 03:08:00,
2013-04-11 23:13:00,29.4,25.2,29.77,NE,45,7.0,11.0,84,0.08,,,0.02,VWS V14.01,2013-04-12 03:13:00,
2013-04-11 23:18:00,29.3,25.1,29.75,ENE,76,8.0,11.0,84,0.07,,,0.02,VWS V14.01,2013-04-12 03:18:00,
2013-04-11 23:23:00,29.3,25.1,29.75,NW,313,0.0,11.0,84,0.07,,,0.03,VWS V14.01,2013-04-12 03:23:00,
2013-04-11 23:28:00,29.3,25.1,29.75,North,3,16.0,16.0,84,0.07,,,0.03,VWS V14.01,2013-04-12 03:28:00,
2013-04-11 23:33:00,29.3,25.1,29.74,NNE,18,2.0,11.0,84,0.07,,,0.04,VWS V14.01,2013-04-12 03:33:00,
2013-04-11 23:38:00,29.3,25.4,29.74,NNE,18,3.0,11.0,85,0.06,,,0.04,VWS V14.01,2013-04-12 03:38:00,
2013-04-11 23:43:00,29.3,25.4,29.74,NE,51,0.0,11.0,85,0.06,,,0.04,VWS V14.01,2013-04-12 03:43:00,
2013-04-11 23:48:00,29.3,25.4,29.72,ENE,69,8.0,11.0,85,0.07,,,0.05,VWS V14.01,2013-04-12 03:48:00,
2013-04-11 23:53:00,29.1,24.9,29.72,NE,47,7.0,11.0,84,0.05,,,0.05,VWS V14.01,2013-04-12 03:53:00,
2013-04-11 23:58:00,29.1,24.9,29.72,NNW,335,2.0,11.0,84,0.05,,,0.05,VWS V14.01,2013-04-12 03:58:00,